Time;durP1;ratioP1;P1;durP2;ratioP2;P2;SDS_P1;SDS_P2;PMS_P1;PMS_P2;Temp;Humidity;BMP_temperature;BMP_pressure;BME280_temperature;BME280_humidity;BME280_pressure;Samples;Min_cycle;Max_cycle;Signal;HPM_P1;HPM_P2
2021/06/26 00:00:14;;;;;;;8.23;6.22;;;19.10;99.90;;;;;;4172822;28;20120;-70
2021/06/26 00:02:15;;;;;;;8.45;5.85;;;19.00;99.90;;;;;;4174283;28;20036;-70
2021/06/26 00:04:15;;;;;;;8.27;6.03;;;19.10;99.90;;;;;;4169232;28;20370;-70
2021/06/26 00:06:16;;;;;;;9.63;6.38;;;19.00;99.90;;;;;;4172532;28;20449;-70
2021/06/26 00:08:17;;;;;;;7.80;6.45;;;19.00;99.90;;;;;;4174525;28;20589;-70
2021/06/26 00:10:18;;;;;;;11.55;7.00;;;19.00;99.90;;;;;;4156086;28;20037;-70
2021/06/26 00:12:18;;;;;;;8.98;6.55;;;19.00;99.90;;;;;;4173923;28;20041;-70
2021/06/26 00:14:19;;;;;;;9.52;7.28;;;18.90;99.90;;;;;;4174258;28;20094;-71
2021/06/26 00:16:20;;;;;;;11.75;7.75;;;18.90;99.90;;;;;;4174114;28;20071;-71
2021/06/26 00:18:21;;;;;;;9.60;7.13;;;18.90;99.90;;;;;;4174200;28;20044;-70
2021/06/26 00:20:21;;;;;;;7.90;6.47;;;18.90;99.90;;;;;;4174035;28;20044;-70
2021/06/26 00:22:22;;;;;;;8.27;6.78;;;18.90;99.90;;;;;;4172512;28;20040;-70
2021/06/26 00:24:23;;;;;;;9.00;7.97;;;18.80;99.90;;;;;;4173868;28;20045;-70
2021/06/26 00:26:23;;;;;;;10.38;7.30;;;18.90;99.90;;;;;;4174014;28;20043;-70
2021/06/26 00:28:24;;;;;;;9.88;6.95;;;18.80;99.90;;;;;;4173604;28;20444;-70
2021/06/26 00:30:25;;;;;;;9.35;7.20;;;18.80;99.90;;;;;;4172106;28;20037;-70
2021/06/26 00:32:26;;;;;;;9.52;7.03;;;18.70;99.90;;;;;;4155697;28;20029;-70
2021/06/26 00:34:26;;;;;;;7.90;6.55;;;18.70;99.90;;;;;;4172565;28;20037;-70
2021/06/26 00:36:27;;;;;;;8.40;7.13;;;18.70;99.90;;;;;;4173224;28;20067;-70
2021/06/26 00:38:27;;;;;;;10.38;7.72;;;18.70;99.90;;;;;;4173448;28;20120;-70
2021/06/26 00:40:28;;;;;;;9.15;7.28;;;18.70;99.90;;;;;;4174121;28;20037;-70
2021/06/26 00:42:36;;;;;;;9.25;7.38;;;18.70;99.90;;;;;;4171018;28;20044;-71
2021/06/26 00:44:37;;;;;;;8.18;6.75;;;18.70;99.90;;;;;;4169136;28;20041;-71
2021/06/26 00:46:37;;;;;;;9.55;7.28;;;18.70;99.90;;;;;;4173695;28;20056;-70
2021/06/26 00:48:38;;;;;;;10.10;7.10;;;18.60;99.90;;;;;;4173766;28;20106;-71
2021/06/26 00:50:39;;;;;;;9.35;7.07;;;18.60;99.90;;;;;;4173377;28;20087;-70
2021/06/26 00:52:39;;;;;;;7.68;6.60;;;18.60;99.90;;;;;;4173539;28;20439;-70
2021/06/26 00:54:40;;;;;;;7.95;6.45;;;18.60;99.90;;;;;;4173432;28;20041;-70
2021/06/26 00:56:41;;;;;;;8.15;6.60;;;18.60;99.90;;;;;;4172423;28;20041;-71
2021/06/26 00:58:43;;;;;;;8.57;6.93;;;18.60;99.90;;;;;;4171126;28;20055;-70
2021/06/26 01:00:44;;;;;;;11.75;7.32;;;18.60;99.90;;;;;;4173309;28;20037;-70
2021/06/26 01:02:44;;;;;;;7.63;6.75;;;18.60;99.90;;;;;;4173754;28;20039;-70
2021/06/26 01:04:45;;;;;;;9.93;6.75;;;18.60;99.90;;;;;;4173502;28;20033;-70
2021/06/26 01:06:45;;;;;;;9.10;6.82;;;18.50;99.90;;;;;;4173717;28;20029;-70
2021/06/26 01:08:46;;;;;;;9.43;6.90;;;18.50;99.90;;;;;;4172098;28;20029;-70
2021/06/26 01:10:46;;;;;;;7.97;6.47;;;18.50;99.90;;;;;;4174147;28;20037;-70
2021/06/26 01:12:47;;;;;;;7.95;6.22;;;18.50;99.90;;;;;;4172090;28;20485;-71
2021/06/26 01:14:50;;;;;;;7.88;6.22;;;18.50;99.90;;;;;;4173520;28;20440;-70
2021/06/26 01:16:50;;;;;;;9.38;7.32;;;18.50;99.90;;;;;;4176887;28;20037;-70
2021/06/26 01:18:51;;;;;;;7.82;6.50;;;18.50;99.90;;;;;;4171449;28;20389;-70
2021/06/26 01:20:52;;;;;;;10.15;7.35;;;18.50;99.90;;;;;;4173223;28;20036;-70
2021/06/26 01:22:58;;;;;;;9.48;7.55;;;18.50;99.90;;;;;;4173370;28;20056;-71
2021/06/26 01:24:59;;;;;;;9.65;7.57;;;18.40;99.90;;;;;;4171927;28;20044;-71
2021/06/26 01:27:00;;;;;;;10.27;7.40;;;18.40;99.90;;;;;;4172061;28;20033;-71
2021/06/26 01:29:02;;;;;;;8.57;6.57;;;18.40;99.90;;;;;;4174460;28;20311;-71
2021/06/26 01:31:02;;;;;;;8.00;6.97;;;18.40;99.90;;;;;;4173900;28;20400;-71
2021/06/26 01:33:04;;;;;;;9.57;7.05;;;18.40;99.90;;;;;;4172805;28;20033;-71
2021/06/26 01:35:06;;;;;;;7.85;6.43;;;18.40;99.90;;;;;;4172807;28;20082;-70
2021/06/26 01:37:07;;;;;;;9.57;6.05;;;18.40;99.90;;;;;;4173899;28;20132;-71
2021/06/26 01:39:07;;;;;;;8.20;6.40;;;18.40;99.90;;;;;;4173544;28;20090;-71
2021/06/26 01:41:08;;;;;;;8.80;6.88;;;18.40;99.90;;;;;;4173360;28;20029;-70
2021/06/26 01:43:12;;;;;;;9.10;7.35;;;18.40;99.90;;;;;;4173432;28;20056;-70
2021/06/26 01:45:14;;;;;;;7.93;6.40;;;18.40;99.90;;;;;;4173216;28;20138;-70
2021/06/26 01:47:15;;;;;;;9.10;7.30;;;18.30;99.90;;;;;;4172819;28;20041;-70
2021/06/26 01:49:17;;;;;;;10.25;7.40;;;18.40;99.90;;;;;;4174493;28;20400;-71
2021/06/26 01:51:18;;;;;;;9.23;6.50;;;18.30;99.90;;;;;;4176686;28;20041;-71
2021/06/26 01:53:19;;;;;;;8.50;6.57;;;18.30;99.90;;;;;;4176577;28;20477;-70
2021/06/26 01:55:21;;;;;;;8.15;6.47;;;18.30;99.90;;;;;;4174436;28;20129;-70
2021/06/26 01:57:21;;;;;;;7.80;6.57;;;18.20;99.90;;;;;;4174651;28;20029;-70
2021/06/26 01:59:22;;;;;;;10.40;7.75;;;18.30;99.90;;;;;;4175961;28;20045;-70
2021/06/26 02:01:23;;;;;;;8.63;6.32;;;18.20;99.90;;;;;;4174552;28;20100;-70
2021/06/26 02:03:23;;;;;;;9.48;7.18;;;18.20;99.90;;;;;;4176165;28;20230;-70
2021/06/26 02:05:24;;;;;;;10.48;7.32;;;18.20;99.90;;;;;;4170280;28;20055;-70
2021/06/26 02:07:25;;;;;;;10.73;6.10;;;18.20;99.90;;;;;;4176214;28;20152;-71
2021/06/26 02:09:26;;;;;;;8.63;6.10;;;18.20;99.90;;;;;;4176173;28;20048;-70
2021/06/26 02:11:26;;;;;;;10.27;6.93;;;18.20;99.90;;;;;;4175784;28;20040;-70
2021/06/26 02:13:27;;;;;;;9.55;6.95;;;18.20;99.90;;;;;;4175366;28;20032;-70
2021/06/26 02:15:28;;;;;;;8.85;7.32;;;18.20;99.90;;;;;;4173975;28;20060;-70
2021/06/26 02:17:29;;;;;;;8.40;5.68;;;18.20;99.90;;;;;;4176532;28;20087;-70
2021/06/26 02:19:29;;;;;;;7.65;6.40;;;18.20;99.90;;;;;;4175486;28;20041;-70
2021/06/26 02:21:30;;;;;;;11.60;6.63;;;18.10;99.90;;;;;;4174045;28;20182;-70
2021/06/26 02:23:30;;;;;;;8.45;6.13;;;18.10;99.90;;;;;;4174368;28;20536;-70
2021/06/26 02:25:32;;;;;;;7.32;5.97;;;18.10;99.90;;;;;;4174225;28;20098;-71
2021/06/26 02:27:34;;;;;;;8.63;6.57;;;18.10;99.90;;;;;;4174019;28;20041;-70
2021/06/26 02:29:35;;;;;;;8.93;7.07;;;18.10;99.90;;;;;;4176266;28;20460;-70
2021/06/26 02:31:36;;;;;;;11.93;7.72;;;18.10;99.90;;;;;;4175467;28;20496;-70
2021/06/26 02:33:36;;;;;;;8.63;6.68;;;18.10;99.90;;;;;;4175652;28;20047;-70
2021/06/26 02:35:37;;;;;;;8.52;6.70;;;18.10;99.90;;;;;;4175046;28;20045;-70
2021/06/26 02:37:39;;;;;;;10.27;7.32;;;18.10;99.90;;;;;;4175449;28;20041;-70
2021/06/26 02:39:39;;;;;;;10.27;6.75;;;18.10;99.90;;;;;;4157513;28;20043;-70
2021/06/26 02:41:40;;;;;;;10.35;7.30;;;18.10;99.90;;;;;;4174738;28;20064;-70
2021/06/26 02:43:40;;;;;;;8.57;6.57;;;18.10;99.90;;;;;;4175334;28;20048;-71
2021/06/26 02:45:41;;;;;;;7.63;6.20;;;18.00;99.90;;;;;;4175446;28;20048;-70
2021/06/26 02:47:42;;;;;;;7.85;6.10;;;18.00;99.90;;;;;;4175984;28;20037;-70
2021/06/26 02:49:43;;;;;;;9.95;7.22;;;18.00;99.90;;;;;;4175568;28;20106;-70
2021/06/26 02:51:43;;;;;;;9.38;7.22;;;18.00;99.90;;;;;;4175507;28;20423;-70
2021/06/26 02:53:44;;;;;;;10.02;7.13;;;18.00;99.90;;;;;;4174101;28;20071;-70
2021/06/26 02:55:44;;;;;;;10.10;7.68;;;18.00;99.90;;;;;;4175099;28;20111;-70
2021/06/26 02:57:45;;;;;;;12.52;8.30;;;17.90;99.90;;;;;;4175048;28;20021;-70
2021/06/26 02:59:47;;;;;;;9.65;7.30;;;17.90;99.90;;;;;;4174077;28;20029;-70
2021/06/26 03:01:47;;;;;;;11.13;8.38;;;18.00;99.90;;;;;;4173596;28;20041;-71
2021/06/26 03:03:48;;;;;;;13.27;8.25;;;17.90;99.90;;;;;;4175256;28;20120;-70
2021/06/26 03:05:49;;;;;;;11.60;8.10;;;17.90;99.90;;;;;;4156892;28;20102;-70
2021/06/26 03:07:51;;;;;;;10.85;8.18;;;17.90;99.90;;;;;;4175491;28;20048;-70
2021/06/26 03:09:52;;;;;;;10.38;7.90;;;17.90;99.90;;;;;;4173179;28;20044;-70
2021/06/26 03:11:53;;;;;;;11.35;8.52;;;17.90;99.90;;;;;;4173438;28;20036;-70
2021/06/26 03:13:54;;;;;;;9.52;7.10;;;17.90;99.90;;;;;;4173886;28;20036;-70
2021/06/26 03:15:55;;;;;;;10.75;7.72;;;17.90;99.90;;;;;;4174626;28;20083;-70
2021/06/26 03:17:55;;;;;;;9.68;7.55;;;17.80;99.90;;;;;;4175459;28;20597;-70
2021/06/26 03:19:56;;;;;;;9.45;7.70;;;17.90;99.90;;;;;;4175085;28;20040;-70
2021/06/26 03:21:57;;;;;;;10.93;7.93;;;17.90;99.90;;;;;;4173096;28;20037;-70
2021/06/26 03:23:57;;;;;;;10.85;8.00;;;17.90;99.90;;;;;;4174945;28;20400;-70
2021/06/26 03:25:58;;;;;;;10.13;7.80;;;17.90;99.90;;;;;;4176503;28;20562;-70
2021/06/26 03:27:59;;;;;;;12.13;8.65;;;17.90;99.90;;;;;;4175015;28;20056;-70
2021/06/26 03:29:59;;;;;;;12.65;9.25;;;17.90;99.90;;;;;;4170719;28;20124;-70
2021/06/26 03:32:00;;;;;;;14.88;8.77;;;17.90;99.90;;;;;;4173447;28;20041;-70
2021/06/26 03:34:00;;;;;;;10.88;8.45;;;17.90;99.90;;;;;;4173304;28;20049;-70
2021/06/26 03:36:02;;;;;;;11.95;8.18;;;17.90;99.90;;;;;;4172457;28;20052;-70
2021/06/26 03:38:03;;;;;;;10.70;8.07;;;17.90;99.90;;;;;;4174854;28;20043;-70
2021/06/26 03:40:05;;;;;;;10.65;8.20;;;17.90;99.90;;;;;;4175034;28;20124;-70
2021/06/26 03:42:08;;;;;;;11.13;7.55;;;17.90;99.90;;;;;;4174328;28;20091;-70
2021/06/26 03:44:09;;;;;;;11.93;8.07;;;17.90;99.90;;;;;;4172881;28;20033;-70
2021/06/26 03:46:10;;;;;;;8.75;6.88;;;17.90;99.90;;;;;;4174525;28;20201;-70
2021/06/26 03:48:10;;;;;;;9.57;7.05;;;17.90;99.90;;;;;;4174840;28;20540;-71
2021/06/26 03:50:12;;;;;;;9.45;7.72;;;17.90;99.90;;;;;;4174605;28;20041;-70
2021/06/26 03:52:12;;;;;;;11.15;8.27;;;17.90;99.90;;;;;;4174621;28;20049;-70
2021/06/26 03:54:13;;;;;;;13.18;8.98;;;17.80;99.90;;;;;;4156779;28;20045;-70
2021/06/26 03:56:14;;;;;;;12.68;9.68;;;17.80;99.90;;;;;;4174552;28;20041;-70
2021/06/26 03:58:14;;;;;;;13.55;10.05;;;17.80;99.90;;;;;;4174343;28;20114;-70
2021/06/26 04:00:16;;;;;;;15.35;9.75;;;17.80;99.90;;;;;;4174527;28;20394;-70
2021/06/26 04:02:16;;;;;;;14.57;9.50;;;17.80;99.90;;;;;;4171978;28;20037;-70
2021/06/26 04:04:17;;;;;;;12.75;10.00;;;17.80;99.90;;;;;;4174518;28;20128;-70
2021/06/26 04:06:18;;;;;;;14.23;8.85;;;17.90;99.90;;;;;;4155964;28;20108;-70
2021/06/26 04:08:18;;;;;;;12.50;9.30;;;17.90;99.90;;;;;;4174358;28;20036;-70
2021/06/26 04:10:19;;;;;;;12.73;9.10;;;17.90;99.90;;;;;;4173163;28;20065;-70
2021/06/26 04:12:20;;;;;;;12.65;9.30;;;17.90;99.90;;;;;;4180485;28;20029;-70
2021/06/26 04:14:21;;;;;;;14.15;8.85;;;17.90;99.90;;;;;;4172242;28;20048;-71
2021/06/26 04:16:22;;;;;;;11.63;8.38;;;17.90;99.90;;;;;;4174211;28;21524;-71
2021/06/26 04:18:23;;;;;;;11.40;8.48;;;17.90;99.90;;;;;;4170757;28;20366;-70
2021/06/26 04:20:25;;;;;;;11.10;8.73;;;17.90;99.90;;;;;;4174886;28;20065;-71
2021/06/26 04:22:26;;;;;;;13.23;9.55;;;18.00;99.90;;;;;;4176036;28;20036;-70
2021/06/26 04:24:27;;;;;;;11.48;8.15;;;18.00;99.90;;;;;;4174217;28;20655;-71
2021/06/26 04:26:28;;;;;;;14.30;10.70;;;18.00;99.90;;;;;;4175793;28;20048;-70
2021/06/26 04:28:28;;;;;;;12.43;9.57;;;18.00;99.90;;;;;;4171832;28;20041;-70
2021/06/26 04:30:29;;;;;;;13.65;10.23;;;18.00;99.90;;;;;;4176709;28;20492;-70
2021/06/26 04:32:30;;;;;;;14.40;10.20;;;18.00;99.90;;;;;;4174509;28;20370;-70
2021/06/26 04:34:30;;;;;;;14.93;9.98;;;18.00;99.90;;;;;;4179787;28;20036;-71
2021/06/26 04:36:31;;;;;;;13.18;9.60;;;18.00;99.90;;;;;;4173184;28;20457;-70
2021/06/26 04:38:31;;;;;;;14.98;9.88;;;18.00;99.90;;;;;;4179076;28;20039;-70
2021/06/26 04:40:32;;;;;;;14.23;10.40;;;18.10;99.90;;;;;;4178616;28;20041;-71
2021/06/26 04:42:33;;;;;;;14.90;10.80;;;18.10;99.90;;;;;;4180577;28;20040;-71
2021/06/26 04:44:34;;;;;;;13.98;10.43;;;18.00;99.90;;;;;;4178771;28;20033;-70
2021/06/26 04:46:36;;;;;;;14.80;11.13;;;18.10;99.90;;;;;;4175799;28;20086;-70
2021/06/26 04:48:39;;;;;;;16.45;10.73;;;18.10;99.90;;;;;;4179554;28;20037;-70
2021/06/26 04:50:41;;;;;;;15.18;10.55;;;18.10;99.90;;;;;;4179045;28;20714;-71
2021/06/26 04:52:43;;;;;;;16.42;11.85;;;18.20;99.90;;;;;;4176772;28;20033;-70
2021/06/26 04:54:44;;;;;;;13.05;10.63;;;18.20;99.90;;;;;;4178180;28;20389;-70
2021/06/26 04:56:44;;;;;;;14.07;11.02;;;18.10;99.90;;;;;;4176324;28;20049;-70
2021/06/26 04:58:45;;;;;;;14.15;10.50;;;18.20;99.90;;;;;;4177319;28;20079;-70
2021/06/26 05:00:46;;;;;;;14.75;10.93;;;18.20;99.90;;;;;;4177594;28;20036;-71
2021/06/26 05:02:46;;;;;;;16.30;11.20;;;18.20;99.90;;;;;;4177608;28;20040;-70
2021/06/26 05:04:47;;;;;;;17.85;11.85;;;18.20;99.90;;;;;;4177081;28;20071;-70
2021/06/26 05:06:48;;;;;;;15.85;12.38;;;18.20;99.90;;;;;;4177141;28;20041;-70
2021/06/26 05:08:48;;;;;;;15.63;11.75;;;18.20;99.90;;;;;;4178898;28;20480;-70
2021/06/26 05:10:49;;;;;;;14.95;11.13;;;18.20;99.90;;;;;;4175422;28;20123;-70
2021/06/26 05:12:50;;;;;;;17.38;12.15;;;18.30;99.90;;;;;;4179183;28;20037;-70
2021/06/26 05:14:50;;;;;;;15.25;11.13;;;18.30;99.90;;;;;;4179304;28;20078;-70
2021/06/26 05:16:51;;;;;;;20.60;12.27;;;18.30;99.90;;;;;;4171199;28;20084;-70
2021/06/26 05:18:51;;;;;;;17.60;11.77;;;18.30;99.90;;;;;;4176103;28;20037;-70
2021/06/26 05:20:52;;;;;;;16.23;11.18;;;18.40;99.90;;;;;;4174843;28;20026;-71
2021/06/26 05:22:53;;;;;;;14.15;11.48;;;18.40;99.90;;;;;;4165694;28;20091;-70
2021/06/26 05:24:54;;;;;;;16.35;11.77;;;18.40;99.90;;;;;;4159337;28;20067;-71
2021/06/26 05:26:54;;;;;;;17.17;11.13;;;18.50;99.90;;;;;;4179655;28;20037;-70
2021/06/26 05:28:55;;;;;;;17.40;12.48;;;18.50;99.90;;;;;;4180941;28;20029;-70
2021/06/26 05:30:56;;;;;;;17.38;12.50;;;18.50;99.90;;;;;;4170817;28;20100;-70
2021/06/26 05:32:56;;;;;;;15.23;11.30;;;18.50;99.90;;;;;;4167008;28;20528;-70
2021/06/26 05:34:57;;;;;;;15.95;11.57;;;18.60;99.90;;;;;;4178912;28;20025;-70
2021/06/26 05:36:57;;;;;;;14.27;11.27;;;18.60;99.90;;;;;;4179800;28;20044;-71
2021/06/26 05:39:00;;;;;;;15.00;11.77;;;18.60;99.90;;;;;;4176333;28;20057;-71
2021/06/26 05:41:01;;;;;;;14.02;11.15;;;18.60;99.90;;;;;;4176681;28;20053;-71
2021/06/26 05:43:02;;;;;;;15.63;10.98;;;18.70;99.90;;;;;;4176821;28;20075;-71
2021/06/26 05:45:05;;;;;;;15.27;11.07;;;18.70;99.90;;;;;;4173678;28;20025;-71
2021/06/26 05:47:05;;;;;;;15.85;11.65;;;18.80;99.90;;;;;;4170485;28;20102;-70
2021/06/26 05:49:06;;;;;;;15.10;10.50;;;18.80;99.90;;;;;;4171066;28;20052;-70
2021/06/26 05:51:07;;;;;;;15.30;11.65;;;18.90;99.90;;;;;;4171913;28;20052;-70
2021/06/26 05:53:07;;;;;;;14.85;10.82;;;18.90;99.90;;;;;;4171184;28;20056;-70
2021/06/26 05:55:08;;;;;;;14.88;10.32;;;19.00;99.90;;;;;;4174703;28;20707;-70
2021/06/26 05:57:09;;;;;;;16.15;11.68;;;19.10;99.90;;;;;;4175172;28;20483;-70
2021/06/26 05:59:09;;;;;;;14.88;11.00;;;19.20;99.90;;;;;;4168990;28;20047;-70
2021/06/26 06:01:11;;;;;;;14.13;11.02;;;19.40;99.90;;;;;;4173351;28;20547;-70
2021/06/26 06:03:12;;;;;;;14.77;10.70;;;19.50;99.90;;;;;;4169455;28;20786;-70
2021/06/26 06:05:13;;;;;;;16.20;10.18;;;19.70;99.90;;;;;;4170666;28;20153;-70
2021/06/26 06:07:14;;;;;;;13.60;10.88;;;19.90;99.90;;;;;;4174191;28;20037;-70
2021/06/26 06:09:14;;;;;;;14.43;11.55;;;20.00;99.90;;;;;;4176345;28;20239;-70
2021/06/26 06:11:15;;;;;;;15.52;11.35;;;20.10;99.90;;;;;;4173085;28;20044;-70
2021/06/26 06:13:18;;;;;;;15.07;10.73;;;20.30;99.90;;;;;;4168551;28;20100;-70
2021/06/26 06:15:18;;;;;;;;;;;20.50;99.90;;;;;;4170120;28;20098;-70
2021/06/26 06:17:19;;;;;;;14.55;10.70;;;20.70;99.90;;;;;;4154007;28;19925;-70
2021/06/26 06:19:20;;;;;;;12.32;10.13;;;20.90;99.90;;;;;;4175657;28;20029;-70
2021/06/26 06:21:21;;;;;;;13.90;10.65;;;21.20;99.90;;;;;;4170245;28;20041;-70
2021/06/26 06:23:21;;;;;;;13.80;10.57;;;21.40;99.90;;;;;;4173476;28;20061;-71
2021/06/26 06:25:22;;;;;;;18.60;10.80;;;21.60;99.90;;;;;;4175594;28;20436;-70
2021/06/26 06:27:22;;;;;;;15.10;10.98;;;21.70;99.90;;;;;;4173034;28;20033;-70
2021/06/26 06:29:23;;;;;;;12.93;10.25;;;21.90;99.90;;;;;;4175302;28;20119;-70
2021/06/26 06:31:23;;;;;;;12.77;9.95;;;22.00;99.90;;;;;;4174685;28;20048;-70
2021/06/26 06:33:24;;;;;;;13.93;10.02;;;22.20;99.90;;;;;;4156275;28;20111;-70
2021/06/26 06:35:25;;;;;;;13.98;9.93;;;22.30;99.90;;;;;;4169024;28;20124;-70
2021/06/26 06:37:27;;;;;;;14.27;9.88;;;22.40;99.90;;;;;;4175320;28;20117;-70
2021/06/26 06:39:27;;;;;;;15.32;10.25;;;22.50;99.90;;;;;;4174370;28;20041;-70
2021/06/26 06:41:28;;;;;;;15.27;10.68;;;22.60;99.90;;;;;;4170868;28;20536;-70
2021/06/26 06:43:29;;;;;;;12.15;9.25;;;22.60;99.90;;;;;;4173015;28;20140;-70
2021/06/26 06:45:29;;;;;;;15.75;9.98;;;22.70;99.90;;;;;;4174474;28;20074;-70
2021/06/26 06:47:30;;;;;;;16.73;11.40;;;22.80;99.90;;;;;;4169967;28;20113;-70
2021/06/26 06:49:30;;;;;;;16.33;11.77;;;22.70;99.90;;;;;;4170906;28;20068;-70
2021/06/26 06:51:31;;;;;;;16.23;11.50;;;22.70;99.90;;;;;;4174083;28;20033;-70
2021/06/26 06:53:32;;;;;;;16.33;12.48;;;22.70;99.90;;;;;;4173781;28;20041;-70
2021/06/26 06:55:32;;;;;;;17.45;13.30;;;22.80;99.90;;;;;;4175497;28;20025;-70
2021/06/26 06:57:33;;;;;;;22.52;13.93;;;22.70;99.90;;;;;;4175142;28;20049;-70
2021/06/26 06:59:34;;;;;;;15.32;11.80;;;22.70;99.90;;;;;;4175400;28;20033;-70
2021/06/26 07:01:34;;;;;;;19.23;13.60;;;22.70;99.90;;;;;;4170018;28;20068;-70
2021/06/26 07:03:35;;;;;;;18.80;13.20;;;22.70;99.90;;;;;;4171512;28;20040;-70
2021/06/26 07:05:35;;;;;;;19.30;13.32;;;22.60;99.90;;;;;;4175450;28;20488;-70
2021/06/26 07:07:36;;;;;;;16.10;12.18;;;22.60;99.90;;;;;;4174285;28;20133;-70
2021/06/26 07:09:37;;;;;;;15.85;11.95;;;22.60;99.90;;;;;;4173638;28;20346;-70
2021/06/26 07:11:38;;;;;;;20.85;13.60;;;22.60;99.90;;;;;;4172286;28;20037;-70
2021/06/26 07:13:38;;;;;;;18.27;12.95;;;22.50;99.90;;;;;;4173658;28;20075;-70
2021/06/26 07:15:39;;;;;;;19.85;12.80;;;22.50;99.90;;;;;;4175210;28;20381;-70
2021/06/26 07:17:40;;;;;;;18.30;13.32;;;22.50;99.90;;;;;;4174027;28;20036;-70
2021/06/26 07:19:40;;;;;;;21.65;13.63;;;22.40;99.90;;;;;;4168889;28;20037;-70
2021/06/26 07:21:41;;;;;;;17.85;12.80;;;22.40;99.90;;;;;;4173943;28;20040;-70
2021/06/26 07:23:42;;;;;;;22.52;16.95;;;22.40;99.90;;;;;;4174064;28;20036;-70
2021/06/26 07:25:42;;;;;;;22.48;16.00;;;22.20;99.90;;;;;;4171632;28;20538;-70
2021/06/26 07:27:43;;;;;;;18.60;13.85;;;22.10;99.90;;;;;;4172732;28;20187;-70
2021/06/26 07:29:44;;;;;;;24.10;16.08;;;22.10;99.90;;;;;;4171665;28;20484;-70
2021/06/26 07:31:44;;;;;;;22.67;16.55;;;22.00;99.90;;;;;;4173985;28;20029;-70
2021/06/26 07:33:45;;;;;;;25.45;16.65;;;21.90;99.90;;;;;;4173419;28;20406;-70
2021/06/26 07:35:45;;;;;;;21.40;15.70;;;22.00;99.90;;;;;;4168195;28;21140;-70
2021/06/26 07:37:46;;;;;;;21.88;15.48;;;21.90;99.90;;;;;;4172917;28;20029;-70
2021/06/26 07:39:47;;;;;;;24.73;15.55;;;21.90;99.90;;;;;;4172860;28;20040;-70
2021/06/26 07:41:47;;;;;;;22.10;15.02;;;22.00;99.90;;;;;;4170170;28;20033;-70
2021/06/26 07:43:49;;;;;;;25.63;17.63;;;22.00;99.90;;;;;;4170723;28;20098;-70
2021/06/26 07:45:49;;;;;;;24.40;17.08;;;22.00;99.90;;;;;;4167460;28;20120;-70
2021/06/26 07:47:50;;;;;;;26.45;17.25;;;22.00;99.90;;;;;;4160695;28;20137;-70
2021/06/26 07:49:51;;;;;;;22.98;16.65;;;22.00;99.90;;;;;;4168833;28;20029;-70
2021/06/26 07:51:51;;;;;;;19.25;14.15;;;21.90;99.90;;;;;;4169839;28;20042;-70
2021/06/26 07:53:52;;;;;;;22.85;16.75;;;21.90;99.90;;;;;;4164715;28;20030;-70
2021/06/26 07:55:53;;;;;;;20.75;14.63;;;22.00;99.90;;;;;;4168798;28;20091;-70
2021/06/26 07:57:53;;;;;;;23.45;16.05;;;21.90;99.90;;;;;;4169090;28;20033;-70
2021/06/26 07:59:54;;;;;;;23.25;16.60;;;22.00;99.90;;;;;;4172886;28;20038;-70
2021/06/26 08:01:55;;;;;;;22.10;15.20;;;22.00;99.90;;;;;;4171099;28;20532;-69
2021/06/26 08:03:56;;;;;;;17.63;13.40;;;22.00;99.90;;;;;;4168180;28;20040;-70
2021/06/26 08:05:57;;;;;;;19.42;14.88;;;22.10;99.90;;;;;;4165458;28;20067;-70
2021/06/26 08:07:58;;;;;;;20.48;14.48;;;22.10;99.90;;;;;;4173624;28;20124;-70
2021/06/26 08:09:59;;;;;;;23.35;15.82;;;22.10;99.90;;;;;;4168351;28;20033;-73
2021/06/26 08:12:00;;;;;;;19.88;14.45;;;22.20;99.90;;;;;;4164767;28;20041;-72
2021/06/26 08:14:00;;;;;;;20.23;13.90;;;22.20;99.90;;;;;;4173765;28;20850;-70
2021/06/26 08:16:01;;;;;;;29.63;16.95;;;22.20;99.90;;;;;;4166383;28;20124;-70
2021/06/26 08:18:03;;;;;;;27.70;16.90;;;22.30;99.90;;;;;;4172628;28;20162;-70
2021/06/26 08:20:04;;;;;;;28.13;16.90;;;22.30;99.90;;;;;;4167248;28;20492;-70
2021/06/26 08:22:05;;;;;;;19.20;14.10;;;22.30;99.90;;;;;;4172313;28;20396;-70
2021/06/26 08:24:06;;;;;;;20.63;13.93;;;22.30;99.90;;;;;;4173371;28;20047;-70
2021/06/26 08:26:06;;;;;;;15.80;11.52;;;22.30;99.90;;;;;;4168436;28;20041;-70
2021/06/26 08:28:07;;;;;;;16.45;11.60;;;22.40;99.90;;;;;;4169504;28;20045;-70
2021/06/26 08:30:09;;;;;;;23.73;15.23;;;22.50;99.90;;;;;;4166543;28;20115;-70
2021/06/26 08:32:10;;;;;;;22.23;14.77;;;22.40;99.90;;;;;;4165910;28;20037;-70
2021/06/26 08:34:10;;;;;;;16.48;10.98;;;22.40;99.90;;;;;;4171683;28;20096;-70
2021/06/26 08:36:11;;;;;;;20.17;13.48;;;22.50;99.90;;;;;;4175825;28;20506;-70
2021/06/26 08:38:11;;;;;;;21.50;13.77;;;22.50;99.90;;;;;;4169378;28;20065;-70
2021/06/26 08:40:14;;;;;;;19.27;12.13;;;22.60;99.90;;;;;;4169174;28;20120;-70
2021/06/26 08:42:18;;;;;;;20.95;14.48;;;22.70;99.90;;;;;;4168859;28;20044;-70
2021/06/26 08:44:20;;;;;;;20.63;12.45;;;22.70;99.90;;;;;;4165907;28;20119;-70
2021/06/26 08:46:22;;;;;;;16.23;10.82;;;22.70;99.90;;;;;;4169961;28;20035;-70
2021/06/26 08:48:23;;;;;;;17.67;12.50;;;22.80;99.90;;;;;;4154309;28;20042;-70
2021/06/26 08:50:25;;;;;;;21.45;14.30;;;23.00;99.90;;;;;;4157815;28;20051;-70
2021/06/26 08:52:26;;;;;;;18.33;11.48;;;23.10;99.90;;;;;;4160689;28;20056;-70
2021/06/26 08:54:27;;;;;;;20.75;14.13;;;23.10;99.90;;;;;;4171020;28;20037;-70
2021/06/26 08:56:27;;;;;;;20.17;12.73;;;23.20;99.90;;;;;;4172199;28;20033;-70
2021/06/26 08:58:28;;;;;;;13.65;9.55;;;23.30;99.90;;;;;;4174118;28;20451;-70
2021/06/26 09:00:29;;;;;;;13.02;9.60;;;23.30;99.90;;;;;;4175827;28;20040;-70
2021/06/26 09:02:30;;;;;;;13.52;9.02;;;23.40;99.90;;;;;;4170915;28;20113;-70
2021/06/26 09:04:37;;;;;;;15.85;11.23;;;23.50;99.90;;;;;;4173677;28;20029;-70
2021/06/26 09:06:55;;;;;;;12.63;8.90;;;23.60;99.90;;;;;;4174180;28;20036;-70
2021/06/26 09:08:56;;;;;;;15.07;11.10;;;23.70;99.90;;;;;;4175112;28;20044;-70
2021/06/26 09:10:56;;;;;;;15.10;10.52;;;23.80;99.90;;;;;;4175282;28;20086;-70
2021/06/26 09:12:57;;;;;;;15.07;10.57;;;23.80;99.90;;;;;;4176009;28;20068;-70
2021/06/26 09:14:57;;;;;;;11.77;8.52;;;23.90;99.90;;;;;;4177669;28;20041;-70
2021/06/26 09:16:58;;;;;;;11.98;7.75;;;24.00;99.90;;;;;;4174070;28;20056;-70
2021/06/26 09:18:59;;;;;;;11.23;7.82;;;24.10;99.90;;;;;;4173491;28;20461;-70
2021/06/26 09:20:59;;;;;;;9.68;7.00;;;24.20;99.90;;;;;;4176803;28;20124;-70
2021/06/26 09:23:02;;;;;;;9.77;7.50;;;24.20;99.90;;;;;;4176056;28;20095;-70
2021/06/26 09:25:04;;;;;;;12.20;8.10;;;24.30;99.90;;;;;;4174467;28;20037;-70
2021/06/26 09:27:05;;;;;;;10.00;7.22;;;24.40;99.90;;;;;;4175028;28;20031;-70
2021/06/26 09:29:14;;;;;;;13.23;8.70;;;24.50;99.90;;;;;;4175922;28;20441;-71
2021/06/26 09:31:20;;;;;;;10.93;7.85;;;24.60;99.20;;;;;;4174903;28;20033;-70
2021/06/26 09:33:24;;;;;;;10.57;8.20;;;24.60;99.20;;;;;;4166979;28;20040;-71
2021/06/26 09:35:25;;;;;;;10.68;7.95;;;24.70;99.30;;;;;;4176783;28;20067;-70
2021/06/26 09:37:28;;;;;;;11.88;7.97;;;24.70;99.90;;;;;;4175945;28;20045;-70
2021/06/26 09:39:38;;;;;;;10.55;8.00;;;24.70;99.20;;;;;;4171467;28;20120;-70
2021/06/26 09:41:40;;;;;;;9.68;7.28;;;24.80;99.00;;;;;;4173869;28;20041;-70
2021/06/26 09:43:40;;;;;;;10.48;7.63;;;24.80;99.20;;;;;;4171160;28;20567;-71
2021/06/26 09:45:41;;;;;;;9.00;6.60;;;24.90;98.50;;;;;;4175228;28;20045;-71
2021/06/26 09:47:44;;;;;;;10.18;6.88;;;24.90;97.70;;;;;;4176156;28;20063;-70
2021/06/26 09:49:45;;;;;;;8.93;6.50;;;25.00;97.80;;;;;;4176789;28;20076;-70
2021/06/26 09:51:46;;;;;;;8.77;6.40;;;25.10;98.30;;;;;;4158786;28;20025;-70
2021/06/26 09:53:53;;;;;;;11.35;7.35;;;25.10;98.70;;;;;;4175660;28;20049;-70
2021/06/26 09:55:54;;;;;;;10.50;7.30;;;25.20;97.40;;;;;;4171986;28;20043;-70
2021/06/26 09:57:56;;;;;;;9.90;7.18;;;25.20;99.30;;;;;;4175695;28;20561;-70
2021/06/26 09:59:57;;;;;;;;;;;25.20;97.80;;;;;;4171629;28;20041;-70
2021/06/26 10:01:58;;;;;;;12.07;8.27;;;25.30;98.50;;;;;;4174152;28;20725;-70
2021/06/26 10:04:00;;;;;;;15.70;10.68;;;25.30;98.20;;;;;;4172735;28;20042;-71
2021/06/26 10:06:01;;;;;;;11.05;8.02;;;25.30;97.80;;;;;;4170425;28;20043;-70
2021/06/26 10:08:06;;;;;;;15.27;9.13;;;25.40;99.90;;;;;;4173789;28;20033;-70
2021/06/26 10:10:10;;;;;;;10.75;7.22;;;25.40;97.60;;;;;;4172340;28;20484;-70
2021/06/26 10:12:11;;;;;;;11.38;7.88;;;25.40;98.10;;;;;;4173619;28;20029;-70
2021/06/26 10:14:12;;;;;;;9.05;6.80;;;25.40;98.00;;;;;;4172423;28;20519;-70
2021/06/26 10:16:12;;;;;;;10.45;7.35;;;25.50;97.90;;;;;;4175593;28;20045;-70
2021/06/26 10:18:13;;;;;;;12.98;8.20;;;25.50;97.70;;;;;;4173201;28;20660;-71
2021/06/26 10:20:17;;;;;;;12.43;8.68;;;25.50;97.10;;;;;;4173514;28;20037;-71